Time;durP1;ratioP1;P1;durP2;ratioP2;P2;SDS_P1;SDS_P2;PMS_P1;PMS_P2;Temp;Humidity;BMP_temperature;BMP_pressure;BME280_temperature;BME280_humidity;BME280_pressure;Samples;Min_cycle;Max_cycle;Signal;HPM_P1;HPM_P2
2023/10/07 00:01:58;;;;;;;7.03;5.30;;;;;;;11.82;100.00;97548.28;5043945;28;20194;-52
2023/10/07 00:04:24;;;;;;;7.47;5.10;;;;;;;11.77;100.00;97542.53;5043893;28;20211;-52
2023/10/07 00:06:51;;;;;;;5.83;5.30;;;;;;;11.77;100.00;97547.81;5043439;28;20207;-51
2023/10/07 00:09:22;;;;;;;7.00;5.50;;;;;;;11.74;100.00;97542.78;5043888;28;20200;-52
2023/10/07 00:11:49;;;;;;;9.57;5.73;;;;;;;11.68;100.00;97540.63;5044693;28;20574;-51
2023/10/07 00:14:17;;;;;;;6.27;5.67;;;;;;;11.66;100.00;97544.34;5043552;28;20226;-52
2023/10/07 00:16:46;;;;;;;7.97;5.50;;;;;;;11.65;100.00;97538.22;5041253;28;20254;-51
2023/10/07 00:19:13;;;;;;;6.37;5.67;;;;;;;11.67;100.00;97546.03;5043717;28;20599;-53
2023/10/07 00:24:42;;;;;;;6.87;5.07;;;;;;;11.59;100.00;97535.22;5078576;28;20569;-52
2023/10/07 00:27:26;;;;;;;7.80;5.47;;;;;;;11.57;100.00;97540.66;5078757;28;20194;-51
2023/10/07 00:29:55;;;;;;;7.73;5.70;;;;;;;11.53;100.00;97539.22;5079150;28;20201;-52
2023/10/07 00:32:26;;;;;;;6.97;5.40;;;;;;;11.47;100.00;97539.75;5078384;28;20202;-51
2023/10/07 00:34:54;;;;;;;6.40;5.27;;;;;;;11.42;100.00;97547.22;5078642;28;20202;-52
2023/10/07 00:37:20;;;;;;;5.87;4.90;;;;;;;11.45;100.00;97542.50;5078414;28;20207;-51
2023/10/07 00:39:48;;;;;;;6.60;5.40;;;;;;;11.46;100.00;97538.06;5078547;28;20232;-51
2023/10/07 00:42:15;;;;;;;6.33;5.20;;;;;;;11.39;100.00;97537.72;5077625;28;20197;-53
2023/10/07 00:44:44;;;;;;;5.80;5.20;;;;;;;11.35;100.00;97538.94;5078688;28;20218;-52
2023/10/07 00:47:13;;;;;;;6.53;4.93;;;;;;;11.30;100.00;97540.31;5078515;28;20293;-52
2023/10/07 00:49:43;;;;;;;5.73;4.97;;;;;;;11.28;100.00;97539.56;5078405;28;20297;-52
2023/10/07 00:52:22;;;;;;;5.60;5.10;;;;;;;11.27;100.00;97540.53;5078797;28;20198;-52
2023/10/07 00:54:57;;;;;;;6.97;4.70;;;;;;;11.23;100.00;97541.78;5078194;28;20305;-52
2023/10/07 00:57:24;;;;;;;7.03;5.23;;;;;;;11.21;100.00;97539.22;5078228;28;20300;-53
2023/10/07 00:59:52;;;;;;;5.30;4.80;;;;;;;11.14;100.00;97539.84;5079406;28;20196;-54
2023/10/07 01:02:29;;;;;;;6.00;5.40;;;;;;;11.10;100.00;97535.78;5077868;28;20252;-55
2023/10/07 01:05:06;;;;;;;7.47;5.13;;;;;;;11.07;100.00;97531.56;5077345;28;20197;-55
2023/10/07 01:07:34;;;;;;;7.50;5.07;;;;;;;11.11;100.00;97529.53;5078377;28;20221;-54
2023/10/07 01:10:13;;;;;;;5.43;4.90;;;;;;;11.12;100.00;97531.22;5077090;28;20212;-55
2023/10/07 01:12:42;;;;;;;6.57;5.23;;;;;;;11.09;100.00;97524.34;5078696;28;20276;-50
2023/10/07 01:15:18;;;;;;;5.33;4.80;;;;;;;11.08;100.00;97521.84;5076534;28;20202;-51
2023/10/07 01:17:45;;;;;;;6.43;5.37;;;;;;;11.03;100.00;97513.41;5077884;28;20304;-51
2023/10/07 01:20:13;;;;;;;5.60;4.83;;;;;;;10.96;100.00;97513.91;5077519;28;20207;-51
2023/10/07 01:23:02;;;;;;;8.30;4.87;;;;;;;10.93;100.00;97514.16;5077078;28;20307;-51
2023/10/07 01:25:31;;;;;;;5.03;4.60;;;;;;;10.96;100.00;97511.28;5077564;28;20209;-51
2023/10/07 01:28:01;;;;;;;5.60;5.10;;;;;;;10.96;100.00;97507.78;5077560;28;20286;-52
2023/10/07 01:30:29;;;;;;;5.60;4.87;;;;;;;10.94;100.00;97499.13;5077097;28;20198;-50
2023/10/07 01:33:02;;;;;;;6.00;5.20;;;;;;;10.90;100.00;97505.63;5077366;28;20778;-54
2023/10/07 01:35:32;;;;;;;5.40;4.87;;;;;;;10.83;100.00;97497.34;5066139;28;20260;-51
2023/10/07 01:38:08;;;;;;;6.43;5.47;;;;;;;10.75;100.00;97502.41;5063327;28;20264;-51
2023/10/07 01:40:45;;;;;;;7.67;5.03;;;;;;;10.76;100.00;97503.25;5063779;28;20695;-51
2023/10/07 01:43:11;;;;;;;5.27;4.73;;;;;;;10.78;100.00;97503.97;5063436;28;20369;-51
2023/10/07 01:45:39;;;;;;;6.43;4.83;;;;;;;10.77;100.00;97503.13;5063122;28;20640;-52
2023/10/07 01:48:08;;;;;;;5.87;5.27;;;;;;;10.77;100.00;97508.41;5063419;28;20211;-52
2023/10/07 01:50:38;;;;;;;6.53;5.53;;;;;;;10.73;100.00;97509.66;5063628;28;20299;-52
2023/10/07 01:53:05;;;;;;;5.53;4.93;;;;;;;10.73;100.00;97511.44;5063738;28;20191;-51
2023/10/07 01:55:35;;;;;;;6.07;5.43;;;;;;;10.72;100.00;97515.91;5063546;28;20207;-52
2023/10/07 01:58:02;;;;;;;6.93;5.33;;;;;;;10.68;100.00;97514.44;5063088;28;20203;-53
2023/10/07 02:00:40;;;;;;;6.00;5.20;;;;;;;10.73;100.00;97514.09;5063017;28;20203;-52
2023/10/07 02:03:09;;;;;;;5.80;5.30;;;;;;;10.74;100.00;97516.59;5063181;28;20262;-52
2023/10/07 02:05:40;;;;;;;7.67;5.50;;;;;;;10.67;100.00;97507.47;5063195;28;20724;-52
2023/10/07 02:08:12;;;;;;;6.00;5.40;;;;;;;10.71;100.00;97508.06;5063188;28;20281;-52
2023/10/07 02:10:40;;;;;;;7.97;5.70;;;;;;;10.68;100.00;97503.03;5062409;28;20662;-52
2023/10/07 02:13:08;;;;;;;6.90;5.60;;;;;;;10.62;100.00;97499.06;5062981;28;20203;-53
2023/10/07 02:15:36;;;;;;;6.07;5.47;;;;;;;10.58;100.00;97502.94;5062800;28;20214;-53
2023/10/07 02:18:04;;;;;;;6.60;6.00;;;;;;;10.58;100.00;97502.94;5062982;28;20279;-52
2023/10/07 02:20:38;;;;;;;5.93;5.33;;;;;;;10.56;100.00;97491.59;5062956;28;20290;-53
2023/10/07 02:23:11;;;;;;;5.67;5.17;;;;;;;10.57;100.00;97498.59;5062518;28;20638;-52
2023/10/07 02:25:40;;;;;;;5.47;4.97;;;;;;;10.59;100.00;97498.47;5062821;28;20295;-51
2023/10/07 02:28:07;;;;;;;6.07;5.47;;;;;;;10.55;100.00;97497.88;5062956;28;20210;-52
2023/10/07 02:30:38;;;;;;;6.17;5.17;;;;;;;10.59;100.00;97494.03;5063465;28;20219;-53
2023/10/07 02:33:08;;;;;;;6.07;5.47;;;;;;;10.59;100.00;97488.75;5065313;28;20199;-53
2023/10/07 02:35:36;;;;;;;6.10;5.50;;;;;;;10.60;100.00;97482.47;5064194;28;20655;-54
2023/10/07 02:38:04;;;;;;;6.10;5.50;;;;;;;10.51;100.00;97485.88;5064047;28;20209;-53
2023/10/07 02:40:36;;;;;;;6.17;5.57;;;;;;;10.47;100.00;97490.56;5063219;28;20203;-52
2023/10/07 02:43:07;;;;;;;5.67;4.90;;;;;;;10.53;100.00;97496.31;5063273;28;20532;-53
2023/10/07 02:45:39;;;;;;;6.73;5.40;;;;;;;10.53;100.00;97494.50;5062107;28;20256;-53
2023/10/07 02:48:10;;;;;;;6.33;4.93;;;;;;;10.46;100.00;97506.53;5061895;28;20264;-52
2023/10/07 02:50:39;;;;;;;8.03;5.40;;;;;;;10.45;100.00;97510.97;5062240;28;20206;-51
2023/10/07 02:53:11;;;;;;;5.80;5.07;;;;;;;10.43;100.00;97512.06;5062217;28;20207;-52
2023/10/07 02:55:47;;;;;;;5.23;4.63;;;;;;;10.47;100.00;97518.81;5062846;28;20302;-54
2023/10/07 02:58:25;;;;;;;5.40;4.90;;;;;;;10.41;100.00;97511.34;5062137;28;20255;-51
2023/10/07 03:00:52;;;;;;;5.60;4.60;;;;;;;10.37;100.00;97509.91;5062669;28;20213;-52
2023/10/07 03:03:32;;;;;;;8.30;5.30;;;;;;;10.30;100.00;97506.06;5062072;28;20223;-51
2023/10/07 03:06:06;;;;;;;5.43;4.93;;;;;;;10.26;100.00;97507.25;5062139;28;20198;-52
2023/10/07 03:08:40;;;;;;;7.93;5.70;;;;;;;10.23;100.00;97507.50;5062238;28;20591;-52
2023/10/07 03:11:11;;;;;;;8.13;4.80;;;;;;;10.23;100.00;97507.50;5061739;28;20655;-53
2023/10/07 03:13:39;;;;;;;6.50;5.10;;;;;;;10.22;100.00;97511.09;5062424;28;20539;-53
2023/10/07 03:18:56;;;;;;;5.53;4.73;;;;;;;10.17;100.00;97506.16;5061477;28;20214;-53
2023/10/07 03:21:35;;;;;;;6.27;5.50;;;;;;;10.11;100.00;97508.41;5062713;28;20526;-52
2023/10/07 03:24:07;;;;;;;5.57;5.07;;;;;;;10.13;100.00;97514.44;5061328;28;20267;-52
2023/10/07 03:26:34;;;;;;;5.83;5.33;;;;;;;10.17;100.00;97507.97;5062165;28;20218;-53
2023/10/07 03:29:04;;;;;;;7.30;5.23;;;;;;;10.11;100.00;97505.78;5061595;28;20207;-53
2023/10/07 03:31:35;;;;;;;6.07;5.47;;;;;;;10.10;100.00;97512.00;5061758;28;20569;-53
2023/10/07 03:34:02;;;;;;;6.03;5.20;;;;;;;10.08;100.00;97506.03;5061035;28;20250;-53
2023/10/07 03:36:41;;;;;;;6.07;5.47;;;;;;;10.06;100.00;97510.59;5062080;28;20302;-54
2023/10/07 03:39:16;;;;;;;5.90;5.17;;;;;;;10.00;100.00;97515.38;5061282;28;20704;-52
2023/10/07 03:41:47;;;;;;;6.73;5.03;;;;;;;10.00;100.00;97518.03;5061617;28;20198;-51
2023/10/07 03:44:15;;;;;;;5.37;4.70;;;;;;;10.10;100.00;97512.00;5061531;28;20221;-53
2023/10/07 03:46:42;;;;;;;7.10;5.30;;;;;;;10.11;100.00;97513.69;5061287;28;20199;-53
2023/10/07 03:49:08;;;;;;;6.80;4.77;;;;;;;10.10;100.00;97512.00;5060944;28;20251;-53
2023/10/07 03:51:35;;;;;;;5.70;4.87;;;;;;;10.04;100.00;97508.06;5061259;28;20635;-52
2023/10/07 03:54:09;;;;;;;5.63;5.07;;;;;;;10.00;100.00;97518.03;5061395;28;20206;-53
2023/10/07 03:56:36;;;;;;;5.40;4.73;;;;;;;10.02;100.00;97524.00;5061658;28;20206;-52
2023/10/07 03:59:05;;;;;;;5.73;5.20;;;;;;;10.12;100.00;97524.16;5061112;28;20199;-52
2023/10/07 04:01:33;;;;;;;6.40;5.23;;;;;;;10.09;100.00;97526.22;5061163;28;20588;-52
2023/10/07 04:04:00;;;;;;;5.23;4.73;;;;;;;10.07;100.00;97534.25;5060887;28;20230;-53
2023/10/07 04:06:31;;;;;;;6.73;5.10;;;;;;;10.02;100.00;97525.00;5061584;28;20200;-53
2023/10/07 04:09:05;;;;;;;5.37;4.87;;;;;;;10.01;100.00;97526.78;5061207;28;20261;-52
2023/10/07 04:11:33;;;;;;;5.63;5.07;;;;;;;10.05;100.00;97537.97;5061264;28;20205;-52
2023/10/07 04:14:06;;;;;;;5.67;5.07;;;;;;;10.10;100.00;97527.88;5061256;28;20199;-53
2023/10/07 04:16:36;;;;;;;5.50;5.00;;;;;;;10.04;100.00;97533.63;5061314;28;20194;-53
2023/10/07 04:19:30;;;;;;;5.80;5.20;;;;;;;10.06;100.00;97523.81;5060369;28;20628;-51
2023/10/07 04:21:56;;;;;;;7.00;5.87;;;;;;;9.95;100.00;97529.91;5061333;28;20292;-52
2023/10/07 04:24:26;;;;;;;8.40;6.37;;;;;;;9.88;100.00;97526.88;5060591;28;20330;-50
2023/10/07 04:26:54;;;;;;;7.93;5.83;;;;;;;9.88;100.00;97532.16;5061013;28;20253;-53
2023/10/07 04:29:22;;;;;;;7.57;5.73;;;;;;;9.87;100.00;97533.13;5060965;28;20211;-53
2023/10/07 04:31:51;;;;;;;6.33;5.73;;;;;;;9.79;100.00;97540.81;5060857;28;20704;-53
2023/10/07 04:34:18;;;;;;;6.00;5.47;;;;;;;9.80;100.00;97539.00;5060519;28;20285;-53
2023/10/07 04:37:10;;;;;;;6.90;5.63;;;;;;;9.85;100.00;97547.41;5062617;28;20195;-53
2023/10/07 04:39:38;;;;;;;7.33;5.40;;;;;;;9.92;100.00;97552.09;5062067;28;20217;-53
2023/10/07 04:42:05;;;;;;;6.57;5.97;;;;;;;9.93;100.00;97551.16;5061510;28;20204;-51
2023/10/07 04:47:34;;;;;;;5.80;5.20;;;;;;;9.84;100.00;97553.66;5060167;28;20664;-53
2023/10/07 04:50:06;;;;;;;7.10;6.00;;;;;;;9.83;100.00;97547.53;5059893;28;20655;-53
2023/10/07 04:52:33;;;;;;;8.23;5.60;;;;;;;9.84;100.00;97558.94;5061171;28;20635;-53
2023/10/07 04:54:59;;;;;;;8.83;5.67;;;;;;;9.78;100.00;97560.25;5060922;28;20205;-53
2023/10/07 04:57:44;;;;;;;7.03;5.77;;;;;;;9.79;100.00;97561.94;5060767;28;20211;-52
2023/10/07 05:00:26;;;;;;;7.00;5.67;;;;;;;9.83;100.00;97566.03;5061066;28;20285;-53
2023/10/07 05:02:57;;;;;;;6.50;5.90;;;;;;;9.75;100.00;97578.97;5060685;28;20202;-53
2023/10/07 05:05:24;;;;;;;7.13;5.87;;;;;;;9.74;100.00;97589.66;5060543;28;20301;-52
2023/10/07 05:07:56;;;;;;;6.40;5.80;;;;;;;9.71;100.00;97593.34;5061066;28;20198;-53
2023/10/07 05:10:23;;;;;;;7.13;5.53;;;;;;;9.74;100.00;97579.91;5062537;28;20620;-54
2023/10/07 05:12:51;;;;;;;6.47;5.70;;;;;;;9.77;100.00;97578.88;5064221;28;20207;-53
2023/10/07 05:15:19;;;;;;;6.10;5.50;;;;;;;9.72;100.00;97575.72;5064331;28;20198;-54
2023/10/07 05:17:45;;;;;;;8.50;5.90;;;;;;;9.70;100.00;97577.63;5064829;28;20202;-53
2023/10/07 05:20:27;;;;;;;6.43;5.53;;;;;;;9.66;100.00;97566.47;5064306;28;20211;-53
2023/10/07 05:22:53;;;;;;;7.00;5.90;;;;;;;9.63;100.00;97566.69;5064842;28;20237;-53
2023/10/07 05:25:21;;;;;;;6.23;5.60;;;;;;;9.60;100.00;97571.38;5064459;28;20229;-54
2023/10/07 05:27:47;;;;;;;6.20;5.60;;;;;;;9.59;100.00;97573.16;5064201;28;20604;-53
2023/10/07 05:30:16;;;;;;;7.20;5.57;;;;;;;9.60;100.00;97571.38;5064303;28;20589;-54
2023/10/07 05:32:42;;;;;;;5.67;5.17;;;;;;;9.57;100.00;97571.56;5065009;28;20268;-53
2023/10/07 05:35:09;;;;;;;6.93;5.70;;;;;;;9.53;100.00;97568.31;5063701;28;20195;-53
2023/10/07 05:37:37;;;;;;;6.97;6.27;;;;;;;9.55;100.00;97579.63;5066939;28;20218;-53
2023/10/07 05:40:06;;;;;;;8.57;5.77;;;;;;;9.61;100.00;97589.72;5066701;28;20199;-52
2023/10/07 05:42:32;;;;;;;6.63;6.03;;;;;;;9.61;100.00;97595.00;5066644;28;20245;-52
2023/10/07 05:44:59;;;;;;;5.83;5.30;;;;;;;9.63;100.00;97593.09;5066552;28;20226;-53
2023/10/07 05:47:25;;;;;;;7.37;6.63;;;;;;;9.63;100.00;97606.31;5066667;28;20202;-53
2023/10/07 05:49:55;;;;;;;8.23;6.23;;;;;;;9.68;100.00;97620.00;5067216;28;20230;-52
2023/10/07 05:52:22;;;;;;;6.90;6.20;;;;;;;9.69;100.00;97623.50;5065507;28;20214;-52
2023/10/07 05:54:51;;;;;;;6.87;6.17;;;;;;;9.77;100.00;97624.63;5065640;28;20207;-52
2023/10/07 05:57:18;;;;;;;6.40;5.80;;;;;;;9.75;100.00;97628.31;5063815;28;20611;-51
2023/10/07 05:59:44;;;;;;;6.90;6.13;;;;;;;9.72;100.00;97634.66;5064016;28;20207;-51
2023/10/07 06:02:14;;;;;;;7.53;6.27;;;;;;;9.71;100.00;97640.91;5064247;28;20225;-51
2023/10/07 06:04:43;;;;;;;9.17;6.87;;;;;;;9.80;100.00;97648.16;5063428;28;20300;-52
2023/10/07 06:07:12;;;;;;;9.40;6.47;;;;;;;9.81;100.00;97638.44;5063382;28;20230;-51
2023/10/07 06:09:41;;;;;;;7.23;6.53;;;;;;;9.88;100.00;97639.66;5064135;28;20548;-52
2023/10/07 06:12:11;;;;;;;7.53;6.37;;;;;;;9.90;100.00;97643.88;5063451;28;20260;-53
2023/10/07 06:14:38;;;;;;;7.20;6.60;;;;;;;9.89;100.00;97642.19;5063914;28;20199;-51
2023/10/07 06:17:06;;;;;;;7.83;7.03;;;;;;;9.94;100.00;97645.34;5063267;28;20210;-52
2023/10/07 06:19:33;;;;;;;8.30;6.57;;;;;;;10.02;100.00;97641.28;5063315;28;20222;-51
2023/10/07 06:22:00;;;;;;;10.90;6.90;;;;;;;10.07;100.00;97639.09;5063641;28;21411;-51
2023/10/07 06:24:27;;;;;;;9.03;7.03;;;;;;;10.10;100.00;97638.88;5063421;28;20686;-52
2023/10/07 06:26:54;;;;;;;8.03;6.83;;;;;;;10.14;100.00;97638.56;5063486;28;20298;-51
2023/10/07 06:29:22;;;;;;;7.27;6.57;;;;;;;10.24;100.00;97638.69;5064036;28;20210;-52
2023/10/07 06:31:55;;;;;;;8.70;7.67;;;;;;;10.31;100.00;97640.75;5063625;28;20207;-53
2023/10/07 06:34:25;;;;;;;7.83;7.17;;;;;;;10.35;100.00;97638.72;5064555;28;20199;-52
2023/10/07 06:36:52;;;;;;;7.57;6.87;;;;;;;10.45;100.00;97634.44;5064015;28;20604;-53
2023/10/07 06:39:27;;;;;;;8.47;7.70;;;;;;;10.54;100.00;97615.22;5064525;28;20277;-51
2023/10/07 06:41:54;;;;;;;8.17;7.37;;;;;;;10.62;100.00;97614.63;5063608;28;20201;-53
2023/10/07 06:44:23;;;;;;;7.67;6.83;;;;;;;10.69;100.00;97608.72;5063937;28;21628;-50
2023/10/07 06:46:55;;;;;;;10.40;7.57;;;;;;;10.78;100.00;97599.22;5062728;28;20646;-53
2023/10/07 06:49:22;;;;;;;10.80;8.40;;;;;;;10.89;100.00;97600.06;5062382;28;20611;-52
2023/10/07 06:51:51;;;;;;;8.27;7.37;;;;;;;11.02;100.00;97591.97;5063491;28;20316;-52
2023/10/07 06:54:17;;;;;;;11.40;8.10;;;;;;;11.15;100.00;97592.69;5063362;28;20687;-52
2023/10/07 06:56:48;;;;;;;8.47;7.73;;;;;;;11.31;100.00;97600.22;5063250;28;20198;-52
2023/10/07 06:59:16;;;;;;;10.83;8.57;;;;;;;11.43;100.00;97623.06;5063111;28;20199;-62
2023/10/07 07:01:54;;;;;;;10.67;9.33;;;;;;;11.54;100.00;97631.00;5063287;28;20195;-56
2023/10/07 07:04:22;;;;;;;11.47;9.40;;;;;;;11.67;100.00;97636.13;5062981;28;20260;-54
2023/10/07 07:06:58;;;;;;;10.37;9.30;;;;;;;11.79;100.00;97624.56;5063279;28;20202;-54
2023/10/07 07:09:43;;;;;;;9.50;8.60;;;;;;;11.88;100.00;97629.09;5062952;28;20204;-51
2023/10/07 07:12:11;;;;;;;10.03;8.77;;;;;;;11.98;100.00;97644.09;5062352;28;20255;-52
2023/10/07 07:14:41;;;;;;;12.90;9.27;;;;;;;12.03;100.00;97641.06;5061715;28;20203;-53
2023/10/07 07:20:19;;;;;;;12.10;9.40;;;;;;;12.16;100.00;97640.88;5061953;28;20213;-52
2023/10/07 07:22:45;;;;;;;9.83;8.93;;;;;;;12.21;100.00;97644.84;5062341;28;20238;-52
2023/10/07 07:25:18;;;;;;;10.87;9.27;;;;;;;12.23;100.00;97644.69;5062578;28;20575;-53
2023/10/07 07:27:48;;;;;;;12.83;9.83;;;;;;;12.26;100.00;97650.59;5063734;28;20213;-54
2023/10/07 07:30:19;;;;;;;14.33;9.03;;;;;;;12.34;100.00;97660.56;5062522;28;20203;-53
2023/10/07 07:32:55;;;;;;;14.30;9.90;;;;;;;12.39;100.00;97655.72;5061805;28;20627;-53
2023/10/07 07:35:22;;;;;;;11.00;9.93;;;;;;;12.45;100.00;97655.19;5061943;28;20202;-53
2023/10/07 07:37:49;;;;;;;12.60;9.60;;;;;;;12.44;100.00;97653.50;5062734;28;20281;-53
2023/10/07 07:40:35;;;;;;;11.50;9.73;;;;;;;12.53;100.00;97646.59;5061816;28;20209;-51
2023/10/07 07:43:02;;;;;;;10.23;9.23;;;;;;;12.59;100.00;97652.19;5061755;28;20194;-53
2023/10/07 07:45:29;;;;;;;10.13;9.10;;;;;;;12.71;100.00;97645.88;5061358;28;20227;-53
2023/10/07 07:47:58;;;;;;;10.57;9.47;;;;;;;12.75;100.00;97654.41;5061495;28;20202;-52
2023/10/07 07:50:25;;;;;;;11.40;9.87;;;;;;;12.80;100.00;97660.97;5061348;28;20203;-53
2023/10/07 07:52:53;;;;;;;11.07;9.97;;;;;;;12.86;100.00;97673.72;5062203;28;20203;-53
2023/10/07 07:55:20;;;;;;;11.37;9.70;;;;;;;12.91;100.00;97684.78;5063237;28;20261;-53
2023/10/07 07:57:46;;;;;;;9.87;8.87;;;;;;;13.04;100.00;97681.91;5063104;28;20517;-52
2023/10/07 08:00:20;;;;;;;10.00;8.97;;;;;;;13.09;100.00;97678.88;5062979;28;20210;-53
2023/10/07 08:02:49;;;;;;;11.07;9.97;;;;;;;13.11;100.00;97672.47;5062229;28;20348;-53
2023/10/07 08:05:17;;;;;;;14.47;10.00;;;;;;;13.13;100.00;97667.03;5061149;28;20218;-53
2023/10/07 08:07:44;;;;;;;12.70;9.37;;;;;;;13.19;100.00;97662.03;5062252;28;20206;-54
2023/10/07 08:10:11;;;;;;;10.50;9.30;;;;;;;13.23;100.00;97659.94;5063222;28;20202;-52
2023/10/07 08:12:38;;;;;;;10.60;9.60;;;;;;;13.28;100.00;97663.03;5061338;28;20510;-54
2023/10/07 08:15:21;;;;;;;13.27;9.27;;;;;;;13.33;100.00;97666.97;5063244;28;20191;-54
2023/10/07 08:17:50;;;;;;;9.63;8.70;;;;;;;13.46;100.00;97674.72;5063573;28;20203;-52
2023/10/07 08:20:23;;;;;;;11.13;8.80;;;;;;;13.56;100.00;97683.53;5060874;28;20198;-54
2023/10/07 08:22:52;;;;;;;13.70;9.33;;;;;;;13.62;100.00;97688.31;5061400;28;20230;-55
2023/10/07 08:25:25;;;;;;;12.43;9.87;;;;;;;13.69;100.00;97694.75;5061214;28;20285;-55
2023/10/07 08:27:55;;;;;;;12.73;8.50;;;;;;;13.76;100.00;97690.56;5061189;28;20277;-55
2023/10/07 08:30:37;;;;;;;11.27;8.53;;;;;;;13.86;100.00;97683.44;5061633;28;20674;-53
2023/10/07 08:33:06;;;;;;;11.38;9.50;;;;;;;13.93;100.00;97681.91;5060805;28;21397;-52
2023/10/07 08:35:34;;;;;;;9.87;8.97;;;;;;;14.06;100.00;97683.47;5060566;28;20206;-52
2023/10/07 08:38:19;;;;;;;9.25;8.32;;;;;;;14.18;100.00;97677.03;5061219;28;20235;-52
2023/10/07 08:40:50;;;;;;;10.30;9.18;;;;;;;14.29;100.00;97684.88;5060325;28;20230;-50
2023/10/07 08:43:20;;;;;;;11.05;9.43;;;;;;;14.42;100.00;97690.78;5060801;28;20248;-52
2023/10/07 08:45:48;;;;;;;10.35;9.15;;;;;;;14.51;100.00;97684.63;5064751;28;20222;-52
2023/10/07 08:48:16;;;;;;;9.90;8.47;;;;;;;14.64;100.00;97685.16;5065072;28;20698;-52
2023/10/07 08:50:55;;;;;;;11.45;9.02;;;;;;;14.68;100.00;97677.72;5071924;28;20202;-52
2023/10/07 08:53:23;;;;;;;10.82;8.85;;;;;;;14.85;100.00;97693.78;5064979;28;20198;-52
2023/10/07 08:55:51;;;;;;;9.95;8.95;;;;;;;14.95;100.00;97694.59;5064965;28;20203;-53
2023/10/07 08:58:18;;;;;;;10.90;9.48;;;;;;;15.10;100.00;97680.81;5064573;28;20214;-52
2023/10/07 09:00:47;;;;;;;13.95;8.80;;;;;;;15.27;100.00;97666.72;5064072;28;20207;-53
2023/10/07 09:03:15;;;;;;;12.68;7.95;;;;;;;15.54;100.00;97679.25;5064839;28;20271;-53
2023/10/07 09:05:47;;;;;;;10.13;8.55;;;;;;;15.79;100.00;97674.06;5064016;28;20307;-52
2023/10/07 09:08:22;;;;;;;8.73;7.90;;;;;;;16.02;100.00;97673.59;5064609;28;20278;-52
2023/10/07 09:10:49;;;;;;;8.38;7.57;;;;;;;16.24;100.00;97679.34;5064715;28;20214;-53
2023/10/07 09:13:27;;;;;;;9.07;7.50;;;;;;;16.56;100.00;97672.63;5064435;28;20681;-53
2023/10/07 09:15:54;;;;;;;11.10;8.27;;;;;;;16.94;100.00;97666.88;5064594;28;20593;-52
2023/10/07 09:18:28;;;;;;;9.20;8.27;;;;;;;17.13;100.00;97657.81;5064611;28;20211;-53
2023/10/07 09:20:57;;;;;;;8.77;7.93;;;;;;;17.51;100.00;97659.97;5064273;28;20586;-52
2023/10/07 09:23:33;;;;;;;8.55;7.72;;;;;;;17.64;100.00;97659.56;5064387;28;20237;-52
2023/10/07 09:26:14;;;;;;;8.98;7.88;;;;;;;18.01;100.00;97668.03;5064604;28;20206;-53
2023/10/07 09:28:46;;;;;;;8.95;7.80;;;;;;;18.17;96.91;97672.56;5064438;28;20203;-51
2023/10/07 09:31:15;;;;;;;8.88;7.53;;;;;;;18.47;95.70;97673.75;5064269;28;20195;-55
2023/10/07 09:33:42;;;;;;;7.80;6.65;;;;;;;18.89;95.12;97661.88;5064388;28;20215;-52
2023/10/07 09:39:05;;;;;;;7.68;6.97;;;;;;;19.12;91.79;97662.00;5056848;28;20199;-53
2023/10/07 09:41:32;;;;;;;8.07;7.28;;;;;;;19.21;90.93;97674.38;5064962;28;20203;-53
2023/10/07 09:44:00;;;;;;;9.57;7.30;;;;;;;19.46;88.34;97667.09;5066578;28;20402;-51
2023/10/07 09:46:27;;;;;;;8.27;6.55;;;;;;;19.94;89.65;97675.97;5068074;28;20243;-52
2023/10/07 09:48:57;;;;;;;7.60;6.13;;;;;;;20.28;90.14;97671.91;5064039;28;20215;-50
2023/10/07 09:51:28;;;;;;;7.90;6.32;;;;;;;20.60;89.38;97670.81;5063998;28;20194;-51
2023/10/07 09:54:16;;;;;;;10.07;6.25;;;;;;;21.08;84.51;97647.19;5064123;28;20207;-53
2023/10/07 09:56:58;;;;;;;8.48;6.53;;;;;;;20.98;81.88;97649.28;5063559;28;20198;-51
2023/10/07 09:59:32;;;;;;;10.70;7.15;;;;;;;21.04;79.78;97638.66;5063794;28;20306;-51
2023/10/07 10:02:25;;;;;;;6.90;6.22;;;;;;;21.49;79.77;97632.25;5064971;28;20294;-52
2023/10/07 10:05:11;;;;;;;8.30;6.18;;;;;;;21.44;76.79;97636.53;5065377;28;20206;-57
2023/10/07 10:07:53;;;;;;;5.85;5.25;;;;;;;21.34;78.62;97634.13;5063531;28;20200;-52
2023/10/07 10:10:30;;;;;;;6.88;5.70;;;;;;;21.25;79.18;97629.88;5063630;28;20598;-51
2023/10/07 10:13:07;;;;;;;7.18;6.07;;;;;;;21.38;81.38;97630.03;5065042;28;20198;-52
2023/10/07 10:18:35;;;;;;;7.95;6.45;;;;;;;21.88;75.06;97626.53;5063709;28;20283;-51
2023/10/07 10:21:05;;;;;;;6.68;6.07;;;;;;;21.95;75.17;97624.78;5062972;28;20207;-54
2023/10/07 10:23:34;;;;;;;6.90;6.18;;;;;;;21.78;73.86;97615.22;5064061;28;20561;-51
2023/10/07 10:26:13;;;;;;;6.68;5.88;;;;;;;21.66;75.94;97617.56;5065864;28;20222;-53
2023/10/07 10:28:41;;;;;;;6.43;5.82;;;;;;;21.67;78.41;97621.94;5063183;28;20954;-52
2023/10/07 10:31:17;;;;;;;8.40;6.13;;;;;;;21.77;75.63;97621.63;5063760;28;20289;-52
2023/10/07 10:33:44;;;;;;;7.15;6.40;;;;;;;22.28;74.41;97622.44;5063262;28;20267;-53
2023/10/07 10:36:12;;;;;;;9.75;6.28;;;;;;;22.28;71.25;97627.81;5062280;28;20546;-51
2023/10/07 10:38:40;;;;;;;7.03;6.30;;;;;;;22.83;73.20;97620.84;5062995;28;20221;-51
2023/10/07 10:41:08;;;;;;;6.28;5.60;;;;;;;22.96;66.23;97610.13;5063512;28;20226;-51
2023/10/07 10:43:35;;;;;;;9.55;5.50;;;;;;;23.56;67.03;97604.91;5063595;28;20227;-53
2023/10/07 10:46:04;;;;;;;7.25;5.68;;;;;;;24.26;64.65;97601.00;5063117;28;20250;-51
2023/10/07 10:48:30;;;;;;;6.45;5.70;;;;;;;23.92;63.20;97590.28;5062576;28;20222;-52
2023/10/07 10:50:57;;;;;;;5.35;4.70;;;;;;;24.76;63.39;97584.16;5061825;28;20740;-53
2023/10/07 10:53:24;;;;;;;8.93;5.68;;;;;;;24.59;62.82;97577.50;5061877;28;20849;-52
2023/10/07 10:55:53;;;;;;;7.35;4.80;;;;;;;25.14;58.71;97562.69;5062339;28;20214;-52
2023/10/07 10:58:22;;;;;;;6.30;4.82;;;;;;;25.86;54.33;97567.00;5063471;28;20215;-50
2023/10/07 11:00:51;;;;;;;7.07;5.35;;;;;;;26.19;48.73;97548.69;5063021;28;20229;-50
2023/10/07 11:03:20;;;;;;;6.45;4.57;;;;;;;25.71;51.93;97553.75;5062596;28;20290;-50
2023/10/07 11:05:48;;;;;;;5.72;5.05;;;;;;;25.28;56.08;97552.66;5062127;28;20305;-50
2023/10/07 11:08:22;;;;;;;7.70;5.18;;;;;;;25.01;59.00;97551.06;5061050;28;20218;-51
2023/10/07 11:10:50;;;;;;;6.78;5.20;;;;;;;24.03;60.19;97549.16;5061839;28;20689;-53
2023/10/07 11:13:17;;;;;;;6.80;4.88;;;;;;;24.20;61.36;97572.06;5062365;28;20227;-53
2023/10/07 11:15:58;;;;;;;5.10;4.60;;;;;;;23.71;62.84;97580.44;5061881;28;20209;-52
2023/10/07 11:18:25;;;;;;;6.57;5.38;;;;;;;23.35;63.67;97586.09;5062095;28;20214;-53
2023/10/07 11:20:54;;;;;;;7.47;4.75;;;;;;;23.02;66.34;97579.69;5061372;28;20203;-55
2023/10/07 11:23:21;;;;;;;5.95;4.70;;;;;;;22.83;66.39;97588.47;5061781;28;20558;-52
2023/10/07 11:25:50;;;;;;;7.90;4.82;;;;;;;22.76;66.88;97600.06;5062135;28;20227;-53
2023/10/07 11:28:22;;;;;;;6.75;4.88;;;;;;;22.92;66.90;97590.81;5062640;28;20198;-52
2023/10/07 11:30:51;;;;;;;6.80;5.53;;;;;;;23.20;65.43;97580.00;5062525;28;20209;-51
2023/10/07 11:33:19;;;;;;;5.10;4.53;;;;;;;23.66;65.59;97586.47;5062062;28;20203;-52
2023/10/07 11:35:57;;;;;;;5.50;4.22;;;;;;;24.10;66.19;97598.63;5062012;28;20211;-50
2023/10/07 11:38:25;;;;;;;6.32;4.60;;;;;;;24.58;62.27;97597.50;5062130;28;20191;-52
2023/10/07 11:40:51;;;;;;;6.53;5.00;;;;;;;24.95;58.58;97600.59;5062347;28;20199;-50
2023/10/07 11:43:19;;;;;;;5.40;4.90;;;;;;;25.16;60.96;97608.47;5062754;28;20304;-54
2023/10/07 11:45:47;;;;;;;5.65;5.13;;;;;;;25.44;60.43;97600.91;5064640;28;20583;-54
2023/10/07 11:48:14;;;;;;;6.82;5.57;;;;;;;25.06;60.60;97600.81;5064133;28;20210;-52
2023/10/07 11:50:41;;;;;;;6.03;5.10;;;;;;;25.23;59.64;97612.00;5065582;28;20198;-52
2023/10/07 11:53:08;;;;;;;6.28;5.13;;;;;;;25.03;58.92;97609.34;5067560;28;20241;-52
2023/10/07 11:55:34;;;;;;;7.05;5.97;;;;;;;24.46;58.87;97609.13;5067717;28;20631;-54
2023/10/07 11:58:01;;;;;;;5.50;5.00;;;;;;;24.70;59.45;97609.34;5068111;28;20536;-53
2023/10/07 12:00:34;;;;;;;6.20;5.18;;;;;;;24.45;59.84;97597.47;5063332;28;20199;-52